createdAt,value
2018-10-05T00:00:18.460Z,18.95
2018-10-05T00:02:53.890Z,16.10
2018-10-05T00:05:29.549Z,16.12
2018-10-05T00:08:04.997Z,16.48
2018-10-05T00:10:40.469Z,21.25
2018-10-05T00:13:16.039Z,16.70
2018-10-05T00:15:51.509Z,16.52
2018-10-05T00:18:27.078Z,16.60
2018-10-05T00:21:02.799Z,21.10
2018-10-05T00:23:38.192Z,16.55
2018-10-05T00:26:13.777Z,16.80
2018-10-05T00:28:49.121Z,16.50
2018-10-05T00:31:24.516Z,17.98
2018-10-05T00:33:59.887Z,15.93
2018-10-05T00:36:35.346Z,17.00
2018-10-05T00:39:11.702Z,17.00
2018-10-05T00:41:47.168Z,16.67
2018-10-05T00:44:22.627Z,18.27
2018-10-05T00:46:58.134Z,16.32
2018-10-05T00:49:33.501Z,15.80
2018-10-05T00:52:08.961Z,17.87
2018-10-05T00:54:44.487Z,18.23
2018-10-05T00:57:20.107Z,18.85
2018-10-05T00:59:55.422Z,17.20
2018-10-05T01:02:30.946Z,17.95
2018-10-05T01:05:06.446Z,22.60
2018-10-05T01:07:42.259Z,17.23
2018-10-05T01:10:17.705Z,17.95
2018-10-05T01:12:53.132Z,19.42
2018-10-05T01:15:28.537Z,18.50
2018-10-05T01:18:03.972Z,20.75
2018-10-05T01:20:39.313Z,17.60
2018-10-05T01:23:14.878Z,18.98
2018-10-05T01:25:50.296Z,19.90
2018-10-05T01:28:25.960Z,19.70
2018-10-05T01:31:01.249Z,20.95
2018-10-05T01:33:36.670Z,21.85
2018-10-05T01:36:12.032Z,21.02
2018-10-05T01:38:47.778Z,21.45
2018-10-05T01:41:23.209Z,20.50
2018-10-05T01:43:58.820Z,20.80
2018-10-05T01:46:34.301Z,21.97
2018-10-05T01:49:09.897Z,21.30
2018-10-05T01:51:45.278Z,20.75
2018-10-05T01:54:20.713Z,21.27
2018-10-05T01:56:56.199Z,21.45
2018-10-05T01:59:32.036Z,21.10
2018-10-05T02:02:07.490Z,20.85
2018-10-05T02:04:43.124Z,22.17
2018-10-05T02:07:18.476Z,20.12
2018-10-05T02:09:54.105Z,20.40
2018-10-05T02:12:29.755Z,19.67
2018-10-05T02:15:05.781Z,23.42
2018-10-05T02:17:41.330Z,24.47
2018-10-05T02:20:16.884Z,20.15
2018-10-05T02:22:52.325Z,22.17
2018-10-05T02:25:27.870Z,21.87
2018-10-05T02:28:03.334Z,21.40
2018-10-05T02:30:39.214Z,21.37
2018-10-05T02:33:14.611Z,21.10
2018-10-05T02:35:50.684Z,21.30
2018-10-05T02:38:25.980Z,23.07
2018-10-05T02:41:01.599Z,22.50
2018-10-05T02:43:37.010Z,21.27
2018-10-05T02:46:12.452Z,25.15
2018-10-05T02:48:47.665Z,23.15
2018-10-05T02:51:23.261Z,22.13
2018-10-05T02:53:58.808Z,22.35
2018-10-05T02:56:34.123Z,23.67
2018-10-05T02:59:09.635Z,22.77
2018-10-05T03:02:02.222Z,24.07
2018-10-05T03:04:37.734Z,23.35
2018-10-05T03:07:13.281Z,24.82
2018-10-05T03:09:49.171Z,24.52
2018-10-05T03:12:24.777Z,23.47
2018-10-05T03:15:00.258Z,23.30
2018-10-05T03:17:36.001Z,23.15
2018-10-05T03:20:11.318Z,22.55
2018-10-05T03:22:46.917Z,23.30
2018-10-05T03:25:22.456Z,23.95
2018-10-05T03:27:57.847Z,22.82
2018-10-05T03:30:33.427Z,23.73
2018-10-05T03:33:09.193Z,23.67
2018-10-05T03:35:44.592Z,24.52
2018-10-05T03:38:20.233Z,23.02
2018-10-05T03:40:55.635Z,22.02
2018-10-05T03:43:31.186Z,23.40
2018-10-05T03:46:06.988Z,23.22
2018-10-05T03:48:42.520Z,22.45
2018-10-05T03:51:18.185Z,23.50
2018-10-05T03:53:53.741Z,23.62
2018-10-05T03:56:29.029Z,22.85
2018-10-05T03:59:04.693Z,24.07
2018-10-05T04:01:39.998Z,22.65
2018-10-05T04:04:15.553Z,24.67
2018-10-05T04:06:50.908Z,22.07
2018-10-05T04:09:26.531Z,22.90
2018-10-05T04:12:02.076Z,22.45
2018-10-05T04:14:37.522Z,23.05
2018-10-05T04:17:13.058Z,22.22
2018-10-05T04:19:48.584Z,21.77
2018-10-05T04:22:28.605Z,22.80
2018-10-05T04:25:03.998Z,23.18
2018-10-05T04:27:39.509Z,24.32
2018-10-05T04:30:15.085Z,23.30
2018-10-05T04:32:50.514Z,23.35
2018-10-05T04:35:25.953Z,23.40
2018-10-05T04:38:01.360Z,22.65
2018-10-05T04:40:36.841Z,22.80
2018-10-05T04:43:12.473Z,23.67
2018-10-05T04:45:48.029Z,23.80
2018-10-05T04:48:23.469Z,23.38
2018-10-05T04:50:59.053Z,21.10
2018-10-05T04:53:34.449Z,21.60
2018-10-05T04:56:10.121Z,20.97
2018-10-05T04:58:45.521Z,19.95
2018-10-05T05:01:21.056Z,21.27
2018-10-05T05:03:56.466Z,20.68
2018-10-05T05:06:31.949Z,18.85
2018-10-05T05:09:07.958Z,19.90
2018-10-05T05:11:43.433Z,20.45
2018-10-05T05:14:18.739Z,19.62
2018-10-05T05:16:54.357Z,19.15
2018-10-05T05:19:29.879Z,20.80
2018-10-05T05:22:05.536Z,18.20
2018-10-05T05:24:41.003Z,18.75
2018-10-05T05:27:16.681Z,19.15
2018-10-05T05:29:52.031Z,19.40
2018-10-05T05:32:27.565Z,19.40
2018-10-05T05:35:03.218Z,19.37
2018-10-05T05:37:38.760Z,20.25
2018-10-05T05:40:14.365Z,19.85
2018-10-05T05:42:49.734Z,20.92
2018-10-05T05:45:24.942Z,21.27
2018-10-05T05:48:00.545Z,23.60
2018-10-05T05:50:35.920Z,18.23
2018-10-05T05:53:11.559Z,17.35
2018-10-05T05:55:46.968Z,18.80
2018-10-05T05:58:22.429Z,18.48
2018-10-05T06:00:57.884Z,17.87
2018-10-05T06:03:33.541Z,16.87
2018-10-05T06:06:15.521Z,17.37
2018-10-05T06:08:51.157Z,16.90
2018-10-05T06:11:26.890Z,27.98
2018-10-05T06:14:02.569Z,16.55
2018-10-05T06:16:38.148Z,16.55
2018-10-05T06:19:13.566Z,17.42
2018-10-05T06:21:49.307Z,16.05
2018-10-05T06:24:24.689Z,15.63
2018-10-05T06:26:59.917Z,16.37
2018-10-05T06:29:35.477Z,16.25
2018-10-05T06:32:10.848Z,14.05
2018-10-05T06:34:46.439Z,15.32
2018-10-05T06:37:23.111Z,16.50
2018-10-05T06:39:59.433Z,16.10
2018-10-05T06:42:34.814Z,13.30
2018-10-05T06:45:10.232Z,20.08
2018-10-05T06:47:45.633Z,15.23
2018-10-05T06:50:21.218Z,15.70
2018-10-05T06:52:56.725Z,14.30
2018-10-05T06:55:32.446Z,12.90
2018-10-05T06:58:08.173Z,13.57
2018-10-05T07:00:43.521Z,13.27
2018-10-05T07:03:19.743Z,14.17
2018-10-05T07:05:55.397Z,13.73
2018-10-05T07:08:30.953Z,12.53
2018-10-05T07:11:06.668Z,13.40
2018-10-05T07:13:41.993Z,13.07
2018-10-05T07:16:17.491Z,13.30
2018-10-05T07:18:52.857Z,12.87
2018-10-05T07:21:28.553Z,12.03
2018-10-05T07:24:03.893Z,14.57
2018-10-05T07:26:39.404Z,15.07
2018-10-05T07:29:14.924Z,15.15
2018-10-05T07:31:50.345Z,51.95
2018-10-05T07:34:25.809Z,15.15
2018-10-05T07:37:01.319Z,56.18
2018-10-05T07:39:36.784Z,14.45
2018-10-05T07:42:12.377Z,16.85
2018-10-05T07:44:47.715Z,14.47
2018-10-05T07:47:23.146Z,14.47
2018-10-05T07:49:58.629Z,13.80
2018-10-05T07:52:34.333Z,14.55
2018-10-05T07:55:09.907Z,15.45
2018-10-05T07:57:45.777Z,15.32
2018-10-05T08:00:21.201Z,13.03
2018-10-05T08:02:56.802Z,16.48
2018-10-05T08:05:32.041Z,15.93
2018-10-05T08:08:08.101Z,14.40
2018-10-05T08:10:43.777Z,14.10
2018-10-05T08:13:19.092Z,14.55
2018-10-05T08:15:54.480Z,12.88
2018-10-05T08:18:30.006Z,13.18
2018-10-05T08:21:05.582Z,12.43
2018-10-05T08:23:41.101Z,11.97
2018-10-05T08:26:16.446Z,13.10
2018-10-05T08:28:51.773Z,15.13
2018-10-05T08:31:27.234Z,10.28
2018-10-05T08:34:02.695Z,13.38
2018-10-05T08:36:38.184Z,10.40
2018-10-05T08:39:13.603Z,10.10
2018-10-05T08:41:49.073Z,11.57
2018-10-05T08:44:24.872Z,11.35
2018-10-05T08:47:00.177Z,9.30
2018-10-05T08:49:35.742Z,10.50
2018-10-05T08:52:11.181Z,8.80
2018-10-05T08:54:46.642Z,9.10
2018-10-05T08:57:22.200Z,11.73
2018-10-05T08:59:57.924Z,20.82
2018-10-05T09:02:33.405Z,8.50
2018-10-05T09:05:08.876Z,7.03
2018-10-05T09:07:44.369Z,8.50
2018-10-05T09:10:19.996Z,7.80
2018-10-05T09:12:55.453Z,9.80
2018-10-05T09:15:30.909Z,9.20
2018-10-05T09:18:06.291Z,7.70
2018-10-05T09:20:41.753Z,9.63
2018-10-05T09:23:17.233Z,8.20
2018-10-05T09:25:52.729Z,8.93
2018-10-05T09:28:28.368Z,9.70
2018-10-05T09:31:03.904Z,8.73
2018-10-05T09:33:39.192Z,9.55
2018-10-05T09:36:14.710Z,8.20
2018-10-05T09:38:50.046Z,8.68
2018-10-05T09:41:25.422Z,8.95
2018-10-05T09:44:00.885Z,9.60
2018-10-05T09:46:36.506Z,8.58
2018-10-05T09:49:11.883Z,8.35
2018-10-05T09:51:47.543Z,7.03
2018-10-05T09:54:22.876Z,7.03
2018-10-05T09:56:58.396Z,6.90
2018-10-05T09:59:33.818Z,6.67
2018-10-05T10:02:15.099Z,6.70
2018-10-05T10:04:50.641Z,7.10
2018-10-05T10:07:26.087Z,7.08
2018-10-05T10:10:01.586Z,7.03
2018-10-05T10:12:37.144Z,7.00
2018-10-05T10:15:12.489Z,6.67
2018-10-05T10:17:47.969Z,6.40
2018-10-05T10:20:23.318Z,11.63
2018-10-05T10:22:58.951Z,6.30
2018-10-05T10:25:34.317Z,6.70
2018-10-05T10:28:10.047Z,6.20
2018-10-05T10:30:45.399Z,6.20
2018-10-05T10:33:20.857Z,5.92
2018-10-05T10:35:56.356Z,19.87
2018-10-05T10:38:31.792Z,8.40
2018-10-05T10:41:07.378Z,9.53
2018-10-05T10:43:42.814Z,7.03
2018-10-05T10:46:18.198Z,6.40
2018-10-05T10:48:53.851Z,6.30
2018-10-05T10:51:29.334Z,5.67
2018-10-05T10:54:04.983Z,6.47
2018-10-05T10:56:40.365Z,5.77
2018-10-05T10:59:16.036Z,6.40
2018-10-05T11:01:51.442Z,10.97
2018-10-05T11:04:26.923Z,5.70
2018-10-05T11:07:02.421Z,5.37
2018-10-05T11:09:37.922Z,6.37
2018-10-05T11:12:13.523Z,26.17
2018-10-05T11:14:49.273Z,18.33
2018-10-05T11:17:24.799Z,11.07
2018-10-05T11:20:00.810Z,11.27
2018-10-05T11:22:36.603Z,19.60
2018-10-05T11:25:12.513Z,5.40
2018-10-05T11:27:47.933Z,6.10
2018-10-05T11:30:23.515Z,8.93
2018-10-05T11:32:58.896Z,5.60
2018-10-05T11:35:34.486Z,17.13
2018-10-05T11:38:09.818Z,8.17
2018-10-05T11:40:45.486Z,5.23
2018-10-05T11:43:21.052Z,4.67
2018-10-05T11:45:56.637Z,4.50
2018-10-05T11:48:32.140Z,4.10
2018-10-05T11:51:08.185Z,5.47
2018-10-05T11:53:43.525Z,8.20
2018-10-05T11:56:19.125Z,6.40
2018-10-05T11:58:54.922Z,5.77
2018-10-05T12:01:30.483Z,4.53
2018-10-05T12:04:06.031Z,4.93
2018-10-05T12:06:42.065Z,4.70
2018-10-05T12:09:17.410Z,4.37
2018-10-05T12:11:53.088Z,5.20
2018-10-05T12:14:28.613Z,17.10
2018-10-05T12:17:04.179Z,5.30
2018-10-05T12:19:39.651Z,4.23
2018-10-05T12:22:15.159Z,5.50
2018-10-05T12:24:50.768Z,3.93
2018-10-05T12:27:26.381Z,3.90
2018-10-05T12:30:01.663Z,3.10
2018-10-05T12:32:37.075Z,2.90
2018-10-05T12:35:13.277Z,4.03
2018-10-05T12:37:49.021Z,3.63
2018-10-05T12:40:24.492Z,3.07
2018-10-05T12:43:00.147Z,3.27
2018-10-05T12:45:35.510Z,3.10
2018-10-05T12:48:10.973Z,2.90
2018-10-05T12:50:46.445Z,3.03
2018-10-05T12:53:22.026Z,3.37
2018-10-05T12:55:57.276Z,2.83
2018-10-05T12:58:32.970Z,2.73
2018-10-05T13:01:08.496Z,2.53
2018-10-05T13:03:44.053Z,3.90
2018-10-05T13:06:19.360Z,3.20
2018-10-05T13:08:54.982Z,6.23
2018-10-05T13:11:30.562Z,5.07
2018-10-05T13:14:06.619Z,3.57
2018-10-05T13:16:42.183Z,3.70
2018-10-05T13:19:17.557Z,3.40
2018-10-05T13:21:52.929Z,5.10
2018-10-05T13:24:28.736Z,3.90
2018-10-05T13:27:04.100Z,2.73
2018-10-05T13:29:39.603Z,6.77
2018-10-05T13:32:15.271Z,2.27
2018-10-05T13:34:50.761Z,5.57
2018-10-05T13:37:26.349Z,3.20
2018-10-05T13:40:01.726Z,2.73
2018-10-05T13:42:37.340Z,3.17
2018-10-05T13:45:12.995Z,4.47
2018-10-05T13:47:48.569Z,2.30
2018-10-05T13:50:24.158Z,2.60
2018-10-05T13:52:59.497Z,2.20
2018-10-05T13:55:34.966Z,2.37
2018-10-05T13:58:10.338Z,3.00
2018-10-05T14:00:45.781Z,2.33
2018-10-05T14:03:21.268Z,2.10
2018-10-05T14:05:57.141Z,2.50
2018-10-05T14:08:32.682Z,1.93
2018-10-05T14:11:08.486Z,2.00
2018-10-05T14:13:43.818Z,2.50
2018-10-05T14:16:19.316Z,2.90
2018-10-05T14:18:54.708Z,1.73
2018-10-05T14:21:30.246Z,2.30
2018-10-05T14:24:05.737Z,2.60
2018-10-05T14:26:41.251Z,2.13
2018-10-05T14:29:16.697Z,1.93
2018-10-05T14:31:52.148Z,2.23
2018-10-05T14:34:27.589Z,2.30
2018-10-05T14:37:03.334Z,1.83
2018-10-05T14:39:38.891Z,2.10
2018-10-05T14:42:14.527Z,2.13
2018-10-05T14:44:49.954Z,2.27
2018-10-05T14:47:25.584Z,2.57
2018-10-05T14:50:01.029Z,2.60
2018-10-05T14:52:36.615Z,2.30
2018-10-05T14:55:11.954Z,1.90
2018-10-05T14:57:47.377Z,1.80
2018-10-05T15:00:22.901Z,2.13
2018-10-05T15:02:58.404Z,2.00
2018-10-05T15:05:33.806Z,2.60
2018-10-05T15:08:09.417Z,2.87
2018-10-05T15:10:44.750Z,2.40
2018-10-05T15:13:20.664Z,2.20
2018-10-05T15:15:56.002Z,1.97
2018-10-05T15:18:31.490Z,2.83
2018-10-05T15:21:07.131Z,3.70
2018-10-05T15:23:42.456Z,2.47
2018-10-05T15:26:17.827Z,2.50
2018-10-05T15:28:53.410Z,2.53
2018-10-05T15:31:28.933Z,2.70
2018-10-05T15:34:04.741Z,2.83
2018-10-05T15:36:40.239Z,2.70
2018-10-05T15:39:15.769Z,2.90
2018-10-05T15:41:51.206Z,3.00
2018-10-05T15:44:27.038Z,5.90
2018-10-05T15:47:10.065Z,2.40
2018-10-05T15:49:46.054Z,2.90
2018-10-05T15:52:21.366Z,3.43
2018-10-05T15:54:56.859Z,3.20
2018-10-05T15:57:32.325Z,2.60
2018-10-05T16:00:07.737Z,5.60
2018-10-05T16:02:43.137Z,3.17
2018-10-05T16:05:18.641Z,3.10
2018-10-05T16:07:54.076Z,3.60
2018-10-05T16:10:29.645Z,3.53
2018-10-05T16:13:05.265Z,3.30
2018-10-05T16:15:41.173Z,3.70
2018-10-05T16:18:16.600Z,3.27
2018-10-05T16:20:52.121Z,2.60
2018-10-05T16:23:27.717Z,3.47
2018-10-05T16:26:03.285Z,4.07
2018-10-05T16:28:38.744Z,2.90
2018-10-05T16:31:14.294Z,3.37
2018-10-05T16:33:49.831Z,3.73
2018-10-05T16:36:25.462Z,3.50
2018-10-05T16:39:00.920Z,3.40
2018-10-05T16:41:36.335Z,6.40
2018-10-05T16:44:11.761Z,3.50
2018-10-05T16:46:47.388Z,4.03
2018-10-05T16:49:22.875Z,4.40
2018-10-05T16:51:58.321Z,3.60
2018-10-05T16:54:33.740Z,3.80
2018-10-05T16:57:09.273Z,3.65
2018-10-05T16:59:44.686Z,3.35
2018-10-05T17:02:20.183Z,3.55
2018-10-05T17:04:55.500Z,3.72
2018-10-05T17:07:30.974Z,3.42
2018-10-05T17:10:06.508Z,3.60
2018-10-05T17:12:42.127Z,4.00
2018-10-05T17:15:17.545Z,3.70
2018-10-05T17:17:53.113Z,4.10
2018-10-05T17:20:28.759Z,3.30
2018-10-05T17:23:04.273Z,4.10
2018-10-05T17:25:39.729Z,3.85
2018-10-05T17:28:15.250Z,4.25
2018-10-05T17:30:50.753Z,4.20
2018-10-05T17:33:26.278Z,4.92
2018-10-05T17:36:01.610Z,4.40
2018-10-05T17:38:37.182Z,4.10
2018-10-05T17:41:12.738Z,3.90
2018-10-05T17:43:48.254Z,4.55
2018-10-05T17:46:23.703Z,5.40
2018-10-05T17:48:59.244Z,4.15
2018-10-05T17:51:34.538Z,5.15
2018-10-05T17:54:09.961Z,4.05
2018-10-05T17:56:45.396Z,5.03
2018-10-05T17:59:20.840Z,6.15
2018-10-05T18:01:56.135Z,5.80
2018-10-05T18:04:31.736Z,5.22
2018-10-05T18:07:07.226Z,5.25
2018-10-05T18:09:42.758Z,6.00
2018-10-05T18:12:18.237Z,4.90
2018-10-05T18:14:53.808Z,4.90
2018-10-05T18:17:35.953Z,5.33
2018-10-05T18:20:11.603Z,6.25
2018-10-05T18:22:46.994Z,6.95
2018-10-05T18:25:22.751Z,7.10
2018-10-05T18:27:58.162Z,5.25
2018-10-05T18:30:33.685Z,5.70
2018-10-05T18:33:09.305Z,6.03
2018-10-05T18:35:45.153Z,5.95
2018-10-05T18:38:20.789Z,5.50
2018-10-05T18:40:56.493Z,4.70
2018-10-05T18:43:32.167Z,5.25
2018-10-05T18:46:08.255Z,5.28
2018-10-05T18:48:43.671Z,4.60
2018-10-05T18:51:19.413Z,4.70
2018-10-05T18:53:54.904Z,4.97
2018-10-05T18:56:47.604Z,5.08
2018-10-05T18:59:23.003Z,6.58
2018-10-05T19:01:58.592Z,5.40
2018-10-05T19:04:34.059Z,5.05
2018-10-05T19:07:10.054Z,5.12
2018-10-05T19:09:45.743Z,5.40
2018-10-05T19:12:21.443Z,5.17
2018-10-05T19:14:56.945Z,5.58
2018-10-05T19:17:32.618Z,5.90
2018-10-05T19:20:08.141Z,6.75
2018-10-05T19:22:43.550Z,5.75
2018-10-05T19:25:19.391Z,5.28
2018-10-05T19:27:54.921Z,5.85
2018-10-05T19:30:30.304Z,6.55
2018-10-05T19:33:05.765Z,6.12
2018-10-05T19:35:41.373Z,7.15
2018-10-05T19:38:16.766Z,11.25
2018-10-05T19:40:52.184Z,6.83
2018-10-05T19:43:27.638Z,6.80
2018-10-05T19:46:03.001Z,6.47
2018-10-05T19:48:38.701Z,5.42
2018-10-05T19:51:14.267Z,5.80
2018-10-05T19:53:49.803Z,6.35
2018-10-05T19:56:25.286Z,6.35
2018-10-05T19:59:00.774Z,5.03
2018-10-05T20:01:36.312Z,5.37
2018-10-05T20:04:11.838Z,5.12
2018-10-05T20:06:47.198Z,5.65
2018-10-05T20:09:22.900Z,5.00
2018-10-05T20:11:58.569Z,7.28
2018-10-05T20:14:34.213Z,6.55
2018-10-05T20:17:09.551Z,5.85
2018-10-05T20:19:45.137Z,6.12
2018-10-05T20:22:20.547Z,10.18
2018-10-05T20:24:56.062Z,7.60
2018-10-05T20:27:31.506Z,7.50
2018-10-05T20:30:08.699Z,6.90
2018-10-05T20:32:44.066Z,5.87
2018-10-05T20:35:19.422Z,7.40
2018-10-05T20:37:54.867Z,7.62
2018-10-05T20:40:30.806Z,9.23
2018-10-05T20:43:06.199Z,19.10
2018-10-05T20:45:41.682Z,6.70
2018-10-05T20:48:17.068Z,5.85
2018-10-05T20:50:52.673Z,11.50
2018-10-05T20:53:28.169Z,5.90
2018-10-05T20:56:03.665Z,6.53
2018-10-05T20:58:38.993Z,5.83
2018-10-05T21:01:14.674Z,5.70
2018-10-05T21:03:50.136Z,6.65
2018-10-05T21:06:25.675Z,6.08
2018-10-05T21:09:01.119Z,6.22
2018-10-05T21:11:36.973Z,6.10
2018-10-05T21:14:12.525Z,6.20
2018-10-05T21:16:47.996Z,5.05
2018-10-05T21:19:23.517Z,8.60
2018-10-05T21:21:58.994Z,9.40
2018-10-05T21:24:34.479Z,6.60
2018-10-05T21:27:10.059Z,11.22
2018-10-05T21:29:45.491Z,14.28
2018-10-05T21:32:21.440Z,9.10
2018-10-05T21:34:56.738Z,8.80
2018-10-05T21:37:32.438Z,7.90
2018-10-05T21:40:07.823Z,6.47
2018-10-05T21:42:43.412Z,6.90
2018-10-05T21:45:19.165Z,7.50
2018-10-05T21:47:54.541Z,6.70
2018-10-05T21:50:30.078Z,6.45
2018-10-05T21:53:05.441Z,14.68
2018-10-05T21:55:40.985Z,12.05
2018-10-05T21:58:18.381Z,12.33
2018-10-05T22:00:53.768Z,9.13
2018-10-05T22:03:30.692Z,8.10
2018-10-05T22:06:06.149Z,9.60
2018-10-05T22:08:41.792Z,34.48
2018-10-05T22:11:17.047Z,27.32
2018-10-05T22:13:53.092Z,8.03
2018-10-05T22:16:34.722Z,7.50
2018-10-05T22:19:10.498Z,10.32
2018-10-05T22:21:45.825Z,12.45
2018-10-05T22:24:21.299Z,13.18
2018-10-05T22:26:56.905Z,9.15
2018-10-05T22:29:32.611Z,8.50
2018-10-05T22:32:08.042Z,14.98
2018-10-05T22:34:43.668Z,18.75
2018-10-05T22:37:19.249Z,15.90
2018-10-05T22:39:54.917Z,18.05
2018-10-05T22:42:30.425Z,12.60
2018-10-05T22:45:06.041Z,13.62
2018-10-05T22:47:41.470Z,10.78
2018-10-05T22:50:16.761Z,17.87
2018-10-05T22:52:52.145Z,11.83
2018-10-05T22:55:27.594Z,16.00
2018-10-05T22:58:03.092Z,30.43
2018-10-05T23:00:38.744Z,40.30
2018-10-05T23:03:14.164Z,28.62
2018-10-05T23:05:49.760Z,28.17
2018-10-05T23:08:25.025Z,25.92
2018-10-05T23:11:00.469Z,34.63
2018-10-05T23:13:36.181Z,25.72
2018-10-05T23:16:11.806Z,29.18
2018-10-05T23:18:47.260Z,17.40
2018-10-05T23:21:22.833Z,26.40
2018-10-05T23:23:58.393Z,11.30
2018-10-05T23:26:33.811Z,11.68
2018-10-05T23:29:09.379Z,17.73
2018-10-05T23:31:44.745Z,19.10
2018-10-05T23:34:20.154Z,19.45
2018-10-05T23:36:55.700Z,19.02
2018-10-05T23:39:31.192Z,21.95
2018-10-05T23:42:07.092Z,18.25
2018-10-05T23:44:42.476Z,25.20
2018-10-05T23:47:18.142Z,13.90
2018-10-05T23:49:53.474Z,14.13
2018-10-05T23:52:49.686Z,12.63
2018-10-05T23:55:25.295Z,17.52
2018-10-05T23:58:00.765Z,17.10
